sensor_id;sensor_type;location;lat;lon;timestamp;pressure;altitude;pressure_sealevel;temperature;humidity
2681;BME280;1350;42.134;24.708;2022-07-04T00:01:31;99607.53;;;22.44;68.38
2681;BME280;1350;42.134;24.708;2022-07-04T00:03:58;99609.50;;;22.51;66.45
2681;BME280;1350;42.134;24.708;2022-07-04T00:06:25;99605.03;;;22.60;66.73
2681;BME280;1350;42.134;24.708;2022-07-04T00:08:52;99602.25;;;22.69;65.90
2681;BME280;1350;42.134;24.708;2022-07-04T00:11:18;99605.47;;;22.73;66.04
2681;BME280;1350;42.134;24.708;2022-07-04T00:13:45;99600.13;;;22.81;66.37
2681;BME280;1350;42.134;24.708;2022-07-04T00:16:12;99603.47;;;22.92;66.92
2681;BME280;1350;42.134;24.708;2022-07-04T00:18:40;99597.41;;;22.98;65.88
2681;BME280;1350;42.134;24.708;2022-07-04T00:21:07;99602.28;;;22.95;66.06
2681;BME280;1350;42.134;24.708;2022-07-04T00:23:34;99592.19;;;23.05;65.88
2681;BME280;1350;42.134;24.708;2022-07-04T00:26:00;99594.22;;;23.03;67.05
2681;BME280;1350;42.134;24.708;2022-07-04T00:28:27;99588.53;;;22.88;68.81
2681;BME280;1350;42.134;24.708;2022-07-04T00:30:54;99591.16;;;22.98;69.96
2681;BME280;1350;42.134;24.708;2022-07-04T00:33:21;99591.38;;;23.04;70.04
2681;BME280;1350;42.134;24.708;2022-07-04T00:35:49;99589.47;;;22.97;69.54
2681;BME280;1350;42.134;24.708;2022-07-04T00:38:15;99588.47;;;22.80;69.83
2681;BME280;1350;42.134;24.708;2022-07-04T00:40:42;99583.06;;;22.80;70.29
2681;BME280;1350;42.134;24.708;2022-07-04T00:43:09;99578.50;;;22.81;69.50
2681;BME280;1350;42.134;24.708;2022-07-04T00:45:36;99574.84;;;22.90;68.68
2681;BME280;1350;42.134;24.708;2022-07-04T00:48:02;99572.63;;;22.85;68.25
2681;BME280;1350;42.134;24.708;2022-07-04T00:50:29;99570.22;;;22.82;66.93
2681;BME280;1350;42.134;24.708;2022-07-04T00:52:57;99575.66;;;22.82;66.25
2681;BME280;1350;42.134;24.708;2022-07-04T00:55:24;99577.81;;;22.79;66.79
2681;BME280;1350;42.134;24.708;2022-07-04T00:57:51;99577.00;;;22.86;66.40
2681;BME280;1350;42.134;24.708;2022-07-04T01:00:18;99566.00;;;22.80;67.38
2681;BME280;1350;42.134;24.708;2022-07-04T01:02:45;99567.59;;;22.90;67.92
2681;BME280;1350;42.134;24.708;2022-07-04T01:05:13;99570.56;;;22.62;70.87
2681;BME280;1350;42.134;24.708;2022-07-04T01:07:40;99565.53;;;22.67;71.55
2681;BME280;1350;42.134;24.708;2022-07-04T01:10:10;99566.84;;;22.80;71.26
2681;BME280;1350;42.134;24.708;2022-07-04T01:12:37;99556.44;;;22.68;72.96
2681;BME280;1350;42.134;24.708;2022-07-04T01:15:05;99557.75;;;22.64;72.70
2681;BME280;1350;42.134;24.708;2022-07-04T01:17:32;99559.81;;;22.70;72.68
2681;BME280;1350;42.134;24.708;2022-07-04T01:19:59;99560.69;;;22.70;72.93
2681;BME280;1350;42.134;24.708;2022-07-04T01:22:27;99561.06;;;22.75;73.75
2681;BME280;1350;42.134;24.708;2022-07-04T01:24:54;99560.28;;;22.83;74.53
2681;BME280;1350;42.134;24.708;2022-07-04T01:27:21;99549.25;;;22.76;75.16
2681;BME280;1350;42.134;24.708;2022-07-04T01:29:48;99549.41;;;22.75;75.28
2681;BME280;1350;42.134;24.708;2022-07-04T01:32:15;99537.16;;;22.88;74.69
2681;BME280;1350;42.134;24.708;2022-07-04T01:34:42;99538.97;;;22.80;74.68
2681;BME280;1350;42.134;24.708;2022-07-04T01:37:09;99538.56;;;22.75;75.21
2681;BME280;1350;42.134;24.708;2022-07-04T01:39:38;99527.22;;;22.71;76.26
2681;BME280;1350;42.134;24.708;2022-07-04T01:42:05;99534.69;;;22.77;76.79
2681;BME280;1350;42.134;24.708;2022-07-04T01:44:32;99535.91;;;22.57;78.37
2681;BME280;1350;42.134;24.708;2022-07-04T01:46:58;99530.00;;;22.62;77.81
2681;BME280;1350;42.134;24.708;2022-07-04T01:49:25;99527.13;;;22.55;78.97
2681;BME280;1350;42.134;24.708;2022-07-04T01:51:52;99533.59;;;22.45;79.33
2681;BME280;1350;42.134;24.708;2022-07-04T01:54:20;99531.81;;;22.18;80.39
2681;BME280;1350;42.134;24.708;2022-07-04T01:56:48;99534.19;;;22.39;80.66
2681;BME280;1350;42.134;24.708;2022-07-04T01:59:15;99537.28;;;22.44;81.37
2681;BME280;1350;42.134;24.708;2022-07-04T02:01:42;99543.38;;;22.46;81.18
2681;BME280;1350;42.134;24.708;2022-07-04T02:04:07;99543.06;;;22.31;82.30
2681;BME280;1350;42.134;24.708;2022-07-04T02:06:35;99543.94;;;22.32;83.37
2681;BME280;1350;42.134;24.708;2022-07-04T02:09:02;99538.91;;;22.19;84.70
2681;BME280;1350;42.134;24.708;2022-07-04T02:11:45;99543.72;;;22.08;86.12
2681;BME280;1350;42.134;24.708;2022-07-04T02:14:31;99549.25;;;22.06;87.43
2681;BME280;1350;42.134;24.708;2022-07-04T02:16:59;99556.28;;;21.72;89.53
2681;BME280;1350;42.134;24.708;2022-07-04T02:19:26;99555.25;;;21.83;89.66
2681;BME280;1350;42.134;24.708;2022-07-04T02:21:53;99548.16;;;21.99;89.51
2681;BME280;1350;42.134;24.708;2022-07-04T02:24:20;99555.28;;;22.00;89.23
2681;BME280;1350;42.134;24.708;2022-07-04T02:26:47;99556.75;;;22.12;88.11
2681;BME280;1350;42.134;24.708;2022-07-04T02:29:13;99554.66;;;22.06;89.04
2681;BME280;1350;42.134;24.708;2022-07-04T02:31:42;99551.88;;;22.16;89.04
2681;BME280;1350;42.134;24.708;2022-07-04T02:34:09;99559.91;;;22.08;89.42
2681;BME280;1350;42.134;24.708;2022-07-04T02:36:36;99559.00;;;22.17;88.31
2681;BME280;1350;42.134;24.708;2022-07-04T02:39:03;99563.38;;;22.18;89.04
2681;BME280;1350;42.134;24.708;2022-07-04T02:41:31;99570.50;;;22.19;89.45
2681;BME280;1350;42.134;24.708;2022-07-04T02:43:57;99571.47;;;22.18;90.18
2681;BME280;1350;42.134;24.708;2022-07-04T02:46:25;99567.25;;;22.15;91.32
2681;BME280;1350;42.134;24.708;2022-07-04T02:48:53;99568.53;;;22.11;92.62
2681;BME280;1350;42.134;24.708;2022-07-04T02:51:19;99566.09;;;22.00;94.21
2681;BME280;1350;42.134;24.708;2022-07-04T02:53:46;99575.50;;;22.14;93.97
2681;BME280;1350;42.134;24.708;2022-07-04T02:56:13;99583.06;;;22.10;94.61
2681;BME280;1350;42.134;24.708;2022-07-04T02:58:40;99579.13;;;22.05;95.68
2681;BME280;1350;42.134;24.708;2022-07-04T03:01:07;99590.91;;;22.04;95.98
2681;BME280;1350;42.134;24.708;2022-07-04T03:03:34;99584.59;;;21.95;98.07
2681;BME280;1350;42.134;24.708;2022-07-04T03:06:02;99583.00;;;21.75;100.00
2681;BME280;1350;42.134;24.708;2022-07-04T03:08:29;99592.56;;;21.60;99.09
2681;BME280;1350;42.134;24.708;2022-07-04T03:10:55;99596.56;;;21.46;97.72
2681;BME280;1350;42.134;24.708;2022-07-04T03:13:22;99597.75;;;21.34;98.54
2681;BME280;1350;42.134;24.708;2022-07-04T03:15:49;99595.66;;;21.28;99.15
2681;BME280;1350;42.134;24.708;2022-07-04T03:18:16;99600.25;;;21.18;98.24
2681;BME280;1350;42.134;24.708;2022-07-04T03:20:43;99602.97;;;21.09;98.65
2681;BME280;1350;42.134;24.708;2022-07-04T03:23:11;99599.84;;;21.04;98.53
2681;BME280;1350;42.134;24.708;2022-07-04T03:25:39;99604.28;;;20.95;99.52
2681;BME280;1350;42.134;24.708;2022-07-04T03:28:07;99593.47;;;20.86;100.00
2681;BME280;1350;42.134;24.708;2022-07-04T03:30:33;99584.13;;;20.80;100.00
2681;BME280;1350;42.134;24.708;2022-07-04T03:33:00;99592.91;;;20.73;100.00
2681;BME280;1350;42.134;24.708;2022-07-04T03:35:28;99597.88;;;20.77;100.00
2681;BME280;1350;42.134;24.708;2022-07-04T03:37:55;99591.50;;;20.69;100.00
2681;BME280;1350;42.134;24.708;2022-07-04T03:40:23;99591.22;;;20.62;100.00
2681;BME280;1350;42.134;24.708;2022-07-04T03:42:53;99588.97;;;20.67;100.00
2681;BME280;1350;42.134;24.708;2022-07-04T03:45:20;99590.66;;;20.78;100.00
2681;BME280;1350;42.134;24.708;2022-07-04T03:47:47;99587.50;;;20.82;100.00
2681;BME280;1350;42.134;24.708;2022-07-04T03:50:13;99590.81;;;20.95;100.00
2681;BME280;1350;42.134;24.708;2022-07-04T03:52:40;99586.22;;;21.05;100.00
2681;BME280;1350;42.134;24.708;2022-07-04T03:55:08;99587.75;;;21.17;100.00
2681;BME280;1350;42.134;24.708;2022-07-04T03:57:36;99573.91;;;21.39;100.00
2681;BME280;1350;42.134;24.708;2022-07-04T04:00:04;99582.53;;;21.52;100.00
2681;BME280;1350;42.134;24.708;2022-07-04T04:02:33;99586.16;;;21.61;100.00
2681;BME280;1350;42.134;24.708;2022-07-04T04:04:59;99593.59;;;21.86;100.00
2681;BME280;1350;42.134;24.708;2022-07-04T04:07:44;99579.50;;;22.10;100.00
2681;BME280;1350;42.134;24.708;2022-07-04T04:10:11;99577.22;;;22.32;99.85
2681;BME280;1350;42.134;24.708;2022-07-04T04:12:39;99585.69;;;22.37;97.10
2681;BME280;1350;42.134;24.708;2022-07-04T04:15:07;99583.63;;;22.49;96.28
2681;BME280;1350;42.134;24.708;2022-07-04T04:17:34;99583.66;;;22.66;95.16
2681;BME280;1350;42.134;24.708;2022-07-04T04:20:01;99583.22;;;22.79;94.07
2681;BME280;1350;42.134;24.708;2022-07-04T04:22:28;99581.91;;;22.83;93.93
2681;BME280;1350;42.134;24.708;2022-07-04T04:24:55;99581.84;;;23.00;93.45
2681;BME280;1350;42.134;24.708;2022-07-04T04:27:21;99589.00;;;23.27;92.50
2681;BME280;1350;42.134;24.708;2022-07-04T04:29:49;99575.44;;;23.53;89.79
2681;BME280;1350;42.134;24.708;2022-07-04T04:32:16;99583.47;;;23.70;88.86
2681;BME280;1350;42.134;24.708;2022-07-04T04:34:43;99585.13;;;23.97;88.18
2681;BME280;1350;42.134;24.708;2022-07-04T04:37:10;99584.84;;;24.16;86.98
2681;BME280;1350;42.134;24.708;2022-07-04T04:39:37;99590.16;;;24.41;85.23
2681;BME280;1350;42.134;24.708;2022-07-04T04:42:04;99591.69;;;24.60;84.39
2681;BME280;1350;42.134;24.708;2022-07-04T04:44:31;99595.78;;;24.96;81.45
2681;BME280;1350;42.134;24.708;2022-07-04T04:46:59;99595.75;;;25.20;79.64
2681;BME280;1350;42.134;24.708;2022-07-04T04:49:26;99603.38;;;25.41;78.37
2681;BME280;1350;42.134;24.708;2022-07-04T04:51:53;99599.91;;;25.71;76.68
2681;BME280;1350;42.134;24.708;2022-07-04T04:54:19;99601.34;;;25.51;74.59
2681;BME280;1350;42.134;24.708;2022-07-04T04:56:46;99601.06;;;25.76;73.31
2681;BME280;1350;42.134;24.708;2022-07-04T04:59:13;99592.66;;;26.02;71.49
2681;BME280;1350;42.134;24.708;2022-07-04T05:01:40;99591.63;;;26.33;69.67
2681;BME280;1350;42.134;24.708;2022-07-04T05:04:08;99592.34;;;26.50;69.02
2681;BME280;1350;42.134;24.708;2022-07-04T05:06:35;99592.69;;;26.78;67.88
2681;BME280;1350;42.134;24.708;2022-07-04T05:09:01;99596.22;;;27.01;66.98
2681;BME280;1350;42.134;24.708;2022-07-04T05:11:28;99594.47;;;27.22;65.20
2681;BME280;1350;42.134;24.708;2022-07-04T05:13:55;99588.25;;;27.36;63.76
2681;BME280;1350;42.134;24.708;2022-07-04T05:16:22;99590.78;;;27.52;62.03
2681;BME280;1350;42.134;24.708;2022-07-04T05:18:48;99587.97;;;27.75;60.95
2681;BME280;1350;42.134;24.708;2022-07-04T05:21:17;99591.63;;;27.67;60.42
2681;BME280;1350;42.134;24.708;2022-07-04T05:23:43;99586.28;;;27.88;60.50
2681;BME280;1350;42.134;24.708;2022-07-04T05:26:10;99580.81;;;28.03;60.78
2681;BME280;1350;42.134;24.708;2022-07-04T05:28:37;99590.50;;;28.06;59.00
2681;BME280;1350;42.134;24.708;2022-07-04T05:31:04;99580.84;;;28.24;57.64
2681;BME280;1350;42.134;24.708;2022-07-04T05:33:31;99578.53;;;28.07;56.68
2681;BME280;1350;42.134;24.708;2022-07-04T05:35:57;99588.75;;;28.34;56.19
2681;BME280;1350;42.134;24.708;2022-07-04T05:38:26;99579.41;;;28.64;56.31
2681;BME280;1350;42.134;24.708;2022-07-04T05:40:52;99590.19;;;28.93;56.56
2681;BME280;1350;42.134;24.708;2022-07-04T05:43:19;99588.44;;;29.06;54.79
2681;BME280;1350;42.134;24.708;2022-07-04T05:45:46;99590.75;;;29.30;54.00
2681;BME280;1350;42.134;24.708;2022-07-04T05:48:13;99589.34;;;29.69;52.74
2681;BME280;1350;42.134;24.708;2022-07-04T05:50:40;99590.34;;;30.02;51.25
2681;BME280;1350;42.134;24.708;2022-07-04T05:53:07;99589.75;;;30.13;51.33
2681;BME280;1350;42.134;24.708;2022-07-04T05:55:35;99592.38;;;30.34;49.74
2681;BME280;1350;42.134;24.708;2022-07-04T05:58:02;99588.66;;;30.54;48.75
2681;BME280;1350;42.134;24.708;2022-07-04T06:00:29;99583.28;;;30.20;49.17
2681;BME280;1350;42.134;24.708;2022-07-04T06:02:55;99587.41;;;30.63;48.29
2681;BME280;1350;42.134;24.708;2022-07-04T06:05:22;99586.97;;;30.47;46.22
2681;BME280;1350;42.134;24.708;2022-07-04T06:07:50;99579.47;;;30.75;46.47
2681;BME280;1350;42.134;24.708;2022-07-04T06:10:16;99585.66;;;30.36;45.30
2681;BME280;1350;42.134;24.708;2022-07-04T06:12:45;99587.69;;;30.75;45.59
2681;BME280;1350;42.134;24.708;2022-07-04T06:15:11;99582.75;;;30.57;44.82
2681;BME280;1350;42.134;24.708;2022-07-04T06:17:38;99577.28;;;30.44;44.04
2681;BME280;1350;42.134;24.708;2022-07-04T06:20:06;99575.78;;;30.35;44.16
2681;BME280;1350;42.134;24.708;2022-07-04T06:22:39;99575.63;;;30.69;43.32
2681;BME280;1350;42.134;24.708;2022-07-04T06:25:09;99581.56;;;30.13;43.88
2681;BME280;1350;42.134;24.708;2022-07-04T06:27:36;99568.44;;;30.49;44.99
2681;BME280;1350;42.134;24.708;2022-07-04T06:30:06;99571.16;;;30.42;44.48
2681;BME280;1350;42.134;24.708;2022-07-04T06:32:41;99572.94;;;30.89;44.01
2681;BME280;1350;42.134;24.708;2022-07-04T06:35:08;99572.09;;;31.41;43.63
2681;BME280;1350;42.134;24.708;2022-07-04T06:37:53;99575.19;;;31.77;42.67
2681;BME280;1350;42.134;24.708;2022-07-04T06:40:20;99579.88;;;31.44;42.89
2681;BME280;1350;42.134;24.708;2022-07-04T06:42:47;99567.25;;;31.43;41.58
2681;BME280;1350;42.134;24.708;2022-07-04T06:45:15;99564.22;;;31.70;42.04
2681;BME280;1350;42.134;24.708;2022-07-04T06:47:42;99569.03;;;31.94;40.94
2681;BME280;1350;42.134;24.708;2022-07-04T06:50:09;99564.81;;;32.42;39.74
2681;BME280;1350;42.134;24.708;2022-07-04T06:52:36;99561.81;;;32.50;40.19
2681;BME280;1350;42.134;24.708;2022-07-04T06:55:03;99549.34;;;32.79;38.92
2681;BME280;1350;42.134;24.708;2022-07-04T06:57:30;99549.59;;;32.71;37.85
2681;BME280;1350;42.134;24.708;2022-07-04T06:59:57;99549.41;;;32.97;38.27
2681;BME280;1350;42.134;24.708;2022-07-04T07:02:25;99545.84;;;32.97;38.53
2681;BME280;1350;42.134;24.708;2022-07-04T07:04:54;99543.50;;;32.69;38.87
2681;BME280;1350;42.134;24.708;2022-07-04T07:07:21;99535.72;;;32.91;39.77
2681;BME280;1350;42.134;24.708;2022-07-04T07:09:47;99537.13;;;33.24;39.09
2681;BME280;1350;42.134;24.708;2022-07-04T07:12:14;99538.81;;;33.25;39.25
2681;BME280;1350;42.134;24.708;2022-07-04T07:14:41;99541.94;;;33.71;39.63
2681;BME280;1350;42.134;24.708;2022-07-04T07:17:08;99538.03;;;33.79;38.84
2681;BME280;1350;42.134;24.708;2022-07-04T07:19:36;99525.88;;;33.86;38.64
2681;BME280;1350;42.134;24.708;2022-07-04T07:22:03;99532.03;;;33.88;38.35
2681;BME280;1350;42.134;24.708;2022-07-04T07:24:30;99532.53;;;33.43;39.00
2681;BME280;1350;42.134;24.708;2022-07-04T07:26:56;99531.06;;;33.40;39.66
2681;BME280;1350;42.134;24.708;2022-07-04T07:29:23;99532.03;;;33.88;39.38
2681;BME280;1350;42.134;24.708;2022-07-04T07:31:50;99526.19;;;34.26;39.95
2681;BME280;1350;42.134;24.708;2022-07-04T07:34:17;99518.66;;;34.40;40.55
2681;BME280;1350;42.134;24.708;2022-07-04T07:36:46;99524.34;;;34.08;39.75
2681;BME280;1350;42.134;24.708;2022-07-04T07:39:13;99524.97;;;34.40;40.28
2681;BME280;1350;42.134;24.708;2022-07-04T07:41:39;99512.09;;;34.34;39.32
2681;BME280;1350;42.134;24.708;2022-07-04T07:44:07;99511.59;;;34.26;39.41
2681;BME280;1350;42.134;24.708;2022-07-04T07:46:34;99519.97;;;34.49;39.51
2681;BME280;1350;42.134;24.708;2022-07-04T07:49:01;99516.53;;;34.53;39.31
2681;BME280;1350;42.134;24.708;2022-07-04T07:51:28;99509.63;;;34.85;39.03
2681;BME280;1350;42.134;24.708;2022-07-04T07:53:56;99520.28;;;34.70;38.72
2681;BME280;1350;42.134;24.708;2022-07-04T07:56:24;99505.91;;;34.39;39.64
2681;BME280;1350;42.134;24.708;2022-07-04T07:58:51;99503.44;;;34.49;38.51
2681;BME280;1350;42.134;24.708;2022-07-04T08:01:18;99511.97;;;34.59;38.72
2681;BME280;1350;42.134;24.708;2022-07-04T08:03:45;99512.56;;;34.31;38.87
2681;BME280;1350;42.134;24.708;2022-07-04T08:06:30;99500.13;;;34.29;38.83
2681;BME280;1350;42.134;24.708;2022-07-04T08:08:59;99503.44;;;34.49;38.58
2681;BME280;1350;42.134;24.708;2022-07-04T08:11:26;99497.69;;;34.91;39.01
2681;BME280;1350;42.134;24.708;2022-07-04T08:13:53;99501.38;;;35.20;37.59
2681;BME280;1350;42.134;24.708;2022-07-04T08:16:19;99496.34;;;35.17;38.38
2681;BME280;1350;42.134;24.708;2022-07-04T08:18:46;99497.81;;;35.08;37.49
2681;BME280;1350;42.134;24.708;2022-07-04T08:21:13;99493.38;;;35.07;35.47
2681;BME280;1350;42.134;24.708;2022-07-04T08:23:40;99489.66;;;35.36;36.35
2681;BME280;1350;42.134;24.708;2022-07-04T08:26:09;99491.22;;;35.55;36.50
2681;BME280;1350;42.134;24.708;2022-07-04T08:28:35;99490.06;;;35.79;34.85
2681;BME280;1350;42.134;24.708;2022-07-04T08:31:02;99488.13;;;35.91;35.92
2681;BME280;1350;42.134;24.708;2022-07-04T08:33:29;99490.00;;;35.62;35.67
2681;BME280;1350;42.134;24.708;2022-07-04T08:35:56;99481.38;;;35.99;36.95
2681;BME280;1350;42.134;24.708;2022-07-04T08:38:23;99493.19;;;36.50;36.61
2681;BME280;1350;42.134;24.708;2022-07-04T08:40:56;99492.44;;;36.27;36.75
2681;BME280;1350;42.134;24.708;2022-07-04T08:43:25;99493.47;;;36.09;37.67
2681;BME280;1350;42.134;24.708;2022-07-04T08:45:53;99492.34;;;35.70;37.26
2681;BME280;1350;42.134;24.708;2022-07-04T08:48:23;99493.06;;;35.78;38.71
2681;BME280;1350;42.134;24.708;2022-07-04T08:50:55;99493.38;;;35.07;38.41
2681;BME280;1350;42.134;24.708;2022-07-04T08:53:27;99486.63;;;34.39;38.72
2681;BME280;1350;42.134;24.708;2022-07-04T08:55:55;99488.72;;;34.55;39.97
2681;BME280;1350;42.134;24.708;2022-07-04T08:58:42;99483.38;;;34.83;39.10
2681;BME280;1350;42.134;24.708;2022-07-04T09:01:10;99479.78;;;34.82;39.55
2681;BME280;1350;42.134;24.708;2022-07-04T09:03:40;99473.97;;;34.90;39.06
2681;BME280;1350;42.134;24.708;2022-07-04T09:06:08;99475.66;;;34.62;37.88
2681;BME280;1350;42.134;24.708;2022-07-04T09:08:35;99474.09;;;34.54;38.37
2681;BME280;1350;42.134;24.708;2022-07-04T09:11:02;99473.41;;;34.82;39.61
2681;BME280;1350;42.134;24.708;2022-07-04T09:13:30;99481.66;;;34.29;36.16
2681;BME280;1350;42.134;24.708;2022-07-04T09:16:00;99473.78;;;34.03;36.94
2681;BME280;1350;42.134;24.708;2022-07-04T09:18:28;99473.66;;;33.80;37.41
2681;BME280;1350;42.134;24.708;2022-07-04T09:20:57;99466.03;;;33.64;36.68
2681;BME280;1350;42.134;24.708;2022-07-04T09:23:26;99466.78;;;33.35;36.11
2681;BME280;1350;42.134;24.708;2022-07-04T09:26:08;99469.88;;;33.63;33.97
2681;BME280;1350;42.134;24.708;2022-07-04T09:28:35;99463.38;;;33.39;35.23
2681;BME280;1350;42.134;24.708;2022-07-04T09:31:13;99462.91;;;33.42;35.37
2681;BME280;1350;42.134;24.708;2022-07-04T09:33:44;99465.56;;;33.67;36.36
2681;BME280;1350;42.134;24.708;2022-07-04T09:36:12;99462.97;;;33.90;35.40
2681;BME280;1350;42.134;24.708;2022-07-04T09:38:39;99454.91;;;34.06;35.77
2681;BME280;1350;42.134;24.708;2022-07-04T09:41:05;99459.06;;;33.97;37.21
2681;BME280;1350;42.134;24.708;2022-07-04T09:43:58;99443.41;;;34.39;35.13
2681;BME280;1350;42.134;24.708;2022-07-04T09:46:27;99456.72;;;34.12;35.75
2681;BME280;1350;42.134;24.708;2022-07-04T09:48:54;99460.38;;;33.59;36.86
2681;BME280;1350;42.134;24.708;2022-07-04T09:51:38;99457.63;;;33.59;34.10
2681;BME280;1350;42.134;24.708;2022-07-04T09:54:20;99453.50;;;33.68;34.86
2681;BME280;1350;42.134;24.708;2022-07-04T09:56:50;99453.06;;;33.53;34.38
2681;BME280;1350;42.134;24.708;2022-07-04T09:59:17;99453.41;;;33.92;34.79
2681;BME280;1350;42.134;24.708;2022-07-04T10:01:46;99460.13;;;33.96;35.41
2681;BME280;1350;42.134;24.708;2022-07-04T10:04:13;99451.47;;;33.45;35.91
2681;BME280;1350;42.134;24.708;2022-07-04T10:06:41;99449.81;;;33.38;35.91
2681;BME280;1350;42.134;24.708;2022-07-04T10:09:09;99453.03;;;33.17;34.92
2681;BME280;1350;42.134;24.708;2022-07-04T10:11:37;99453.38;;;32.53;35.50
2681;BME280;1350;42.134;24.708;2022-07-04T10:14:05;99446.28;;;32.70;36.16
2681;BME280;1350;42.134;24.708;2022-07-04T10:16:32;99444.69;;;33.23;35.80
2681;BME280;1350;42.134;24.708;2022-07-04T10:19:00;99444.19;;;33.51;34.67
2681;BME280;1350;42.134;24.708;2022-07-04T10:21:28;99449.03;;;33.13;34.71
2681;BME280;1350;42.134;24.708;2022-07-04T10:23:55;99449.09;;;32.88;35.57
2681;BME280;1350;42.134;24.708;2022-07-04T10:26:22;99451.63;;;32.83;35.32
2681;BME280;1350;42.134;24.708;2022-07-04T10:28:50;99437.75;;;33.03;35.32
2681;BME280;1350;42.134;24.708;2022-07-04T10:31:18;99425.97;;;32.96;35.03
2681;BME280;1350;42.134;24.708;2022-07-04T10:33:46;99432.78;;;33.11;35.68
2681;BME280;1350;42.134;24.708;2022-07-04T10:36:18;99431.81;;;32.81;34.98
2681;BME280;1350;42.134;24.708;2022-07-04T10:38:48;99422.22;;;32.90;35.15
2681;BME280;1350;42.134;24.708;2022-07-04T10:41:16;99417.41;;;33.22;35.10
2681;BME280;1350;42.134;24.708;2022-07-04T10:43:57;99428.06;;;33.54;35.36
2681;BME280;1350;42.134;24.708;2022-07-04T10:46:38;99409.81;;;33.42;34.43
2681;BME280;1350;42.134;24.708;2022-07-04T10:49:18;99409.69;;;33.66;34.71
2681;BME280;1350;42.134;24.708;2022-07-04T10:51:48;99417.19;;;33.23;34.21
2681;BME280;1350;42.134;24.708;2022-07-04T10:54:17;99409.34;;;33.09;34.98
2681;BME280;1350;42.134;24.708;2022-07-04T10:56:50;99408.66;;;33.13;35.50
2681;BME280;1350;42.134;24.708;2022-07-04T10:59:22;99415.13;;;33.19;36.37
2681;BME280;1350;42.134;24.708;2022-07-04T11:01:56;99404.59;;;32.98;35.84
2681;BME280;1350;42.134;24.708;2022-07-04T11:04:46;99390.41;;;32.76;36.45
2681;BME280;1350;42.134;24.708;2022-07-04T11:07:16;99393.91;;;33.08;35.80
2681;BME280;1350;42.134;24.708;2022-07-04T11:09:43;99410.41;;;32.83;36.09
2681;BME280;1350;42.134;24.708;2022-07-04T11:12:11;99395.00;;;32.82;36.48
2681;BME280;1350;42.134;24.708;2022-07-04T11:14:41;99398.97;;;32.43;36.43
2681;BME280;1350;42.134;24.708;2022-07-04T11:17:11;99387.53;;;32.46;37.49
2681;BME280;1350;42.134;24.708;2022-07-04T11:19:39;99378.72;;;32.62;38.05
2681;BME280;1350;42.134;24.708;2022-07-04T11:22:07;99389.97;;;32.79;37.32
2681;BME280;1350;42.134;24.708;2022-07-04T11:24:37;99383.06;;;32.95;37.19
2681;BME280;1350;42.134;24.708;2022-07-04T11:27:06;99388.25;;;32.60;37.64
2681;BME280;1350;42.134;24.708;2022-07-04T11:29:33;99379.25;;;32.71;37.59
2681;BME280;1350;42.134;24.708;2022-07-04T11:32:00;99385.16;;;32.75;37.29
2681;BME280;1350;42.134;24.708;2022-07-04T11:34:31;99382.69;;;32.85;36.85
2681;BME280;1350;42.134;24.708;2022-07-04T11:36:58;99368.38;;;32.83;37.55
2681;BME280;1350;42.134;24.708;2022-07-04T11:39:26;99374.31;;;32.80;36.81
2681;BME280;1350;42.134;24.708;2022-07-04T11:41:55;99374.78;;;32.77;36.80
2681;BME280;1350;42.134;24.708;2022-07-04T11:44:40;99363.13;;;32.99;37.57
2681;BME280;1350;42.134;24.708;2022-07-04T11:47:32;99365.78;;;32.88;37.37
2681;BME280;1350;42.134;24.708;2022-07-04T11:49:59;99362.94;;;32.58;37.27
2681;BME280;1350;42.134;24.708;2022-07-04T11:52:28;99357.56;;;32.63;37.45
2681;BME280;1350;42.134;24.708;2022-07-04T11:54:55;99358.44;;;32.82;38.32
2681;BME280;1350;42.134;24.708;2022-07-04T11:57:25;99359.03;;;32.65;37.57
2681;BME280;1350;42.134;24.708;2022-07-04T11:59:57;99361.38;;;32.62;38.16
2681;BME280;1350;42.134;24.708;2022-07-04T12:02:25;99358.94;;;32.54;37.73
2681;BME280;1350;42.134;24.708;2022-07-04T12:04:52;99360.41;;;32.56;37.53
2681;BME280;1350;42.134;24.708;2022-07-04T12:07:21;99359.28;;;32.64;37.58
2681;BME280;1350;42.134;24.708;2022-07-04T12:09:49;99344.84;;;32.68;37.62
2681;BME280;1350;42.134;24.708;2022-07-04T12:12:16;99349.63;;;33.16;37.66
2681;BME280;1350;42.134;24.708;2022-07-04T12:14:59;99352.13;;;33.17;37.14
2681;BME280;1350;42.134;24.708;2022-07-04T12:17:31;99347.34;;;32.95;36.95
2681;BME280;1350;42.134;24.708;2022-07-04T12:19:59;99353.75;;;32.89;36.71
2681;BME280;1350;42.134;24.708;2022-07-04T12:22:37;99339.94;;;32.95;36.57
2681;BME280;1350;42.134;24.708;2022-07-04T12:25:07;99337.09;;;33.02;36.49
2681;BME280;1350;42.134;24.708;2022-07-04T12:27:36;99324.88;;;33.16;36.25
2681;BME280;1350;42.134;24.708;2022-07-04T12:30:05;99329.22;;;33.41;36.98
2681;BME280;1350;42.134;24.708;2022-07-04T12:32:49;99338.91;;;33.44;36.62
2681;BME280;1350;42.134;24.708;2022-07-04T12:35:33;99338.63;;;33.63;37.89
2681;BME280;1350;42.134;24.708;2022-07-04T12:38:01;99336.16;;;33.73;36.50
2681;BME280;1350;42.134;24.708;2022-07-04T12:40:28;99339.88;;;33.49;34.90
2681;BME280;1350;42.134;24.708;2022-07-04T12:42:55;99329.66;;;33.56;35.52
2681;BME280;1350;42.134;24.708;2022-07-04T12:45:23;99332.31;;;33.63;35.78
2681;BME280;1350;42.134;24.708;2022-07-04T12:47:50;99321.56;;;33.43;34.45
2681;BME280;1350;42.134;24.708;2022-07-04T12:50:24;99321.84;;;33.53;34.35
2681;BME280;1350;42.134;24.708;2022-07-04T12:52:52;99328.06;;;33.49;34.45
2681;BME280;1350;42.134;24.708;2022-07-04T12:55:18;99315.13;;;33.49;35.09
2681;BME280;1350;42.134;24.708;2022-07-04T12:57:45;99318.22;;;33.41;34.49
2681;BME280;1350;42.134;24.708;2022-07-04T13:00:12;99313.63;;;33.17;34.88
2681;BME280;1350;42.134;24.708;2022-07-04T13:02:41;99315.25;;;33.07;34.30
2681;BME280;1350;42.134;24.708;2022-07-04T13:05:08;99309.16;;;33.05;34.38
2681;BME280;1350;42.134;24.708;2022-07-04T13:07:35;99322.81;;;33.11;35.18
2681;BME280;1350;42.134;24.708;2022-07-04T13:10:01;99313.56;;;33.24;34.54
2681;BME280;1350;42.134;24.708;2022-07-04T13:12:28;99303.41;;;33.42;34.63
2681;BME280;1350;42.134;24.708;2022-07-04T13:14:56;99313.94;;;33.45;34.14
2681;BME280;1350;42.134;24.708;2022-07-04T13:17:24;99310.31;;;33.45;33.73